createdAt,value
2023-03-17T00:01:58.375Z,2.80
2023-03-17T00:04:29.178Z,2.30
2023-03-17T00:06:59.969Z,2.33
2023-03-17T00:09:28.986Z,2.13
2023-03-17T00:11:57.852Z,2.20
2023-03-17T00:14:27.967Z,1.88
2023-03-17T00:16:56.609Z,2.25
2023-03-17T00:19:31.261Z,1.92
2023-03-17T00:22:00.289Z,2.17
2023-03-17T00:24:29.181Z,2.22
2023-03-17T00:26:58.206Z,2.40
2023-03-17T00:29:30.322Z,2.05
2023-03-17T00:31:59.051Z,2.20
2023-03-17T00:34:28.383Z,2.40
2023-03-17T00:36:57.195Z,1.98
2023-03-17T00:39:27.264Z,2.15
2023-03-17T00:41:56.445Z,2.20
2023-03-17T00:44:25.678Z,1.90
2023-03-17T00:46:57.952Z,2.50
2023-03-17T00:49:30.125Z,2.58
2023-03-17T00:51:58.809Z,2.50
2023-03-17T00:54:27.385Z,3.17
2023-03-17T00:56:56.479Z,2.03
2023-03-17T00:59:30.183Z,2.35
2023-03-17T01:02:00.458Z,1.70
2023-03-17T01:04:29.044Z,1.80
2023-03-17T01:06:59.500Z,2.17
2023-03-17T01:09:29.260Z,2.20
2023-03-17T01:11:59.877Z,1.80
2023-03-17T01:14:28.590Z,2.08
2023-03-17T01:16:57.318Z,1.80
2023-03-17T01:19:27.356Z,2.33
2023-03-17T01:21:55.785Z,2.25
2023-03-17T01:24:24.865Z,1.65
2023-03-17T01:26:53.785Z,2.13
2023-03-17T01:29:22.868Z,2.20
2023-03-17T01:31:51.455Z,2.30
2023-03-17T01:34:20.173Z,2.50
2023-03-17T01:36:50.338Z,2.22
2023-03-17T01:39:19.840Z,2.28
2023-03-17T01:41:48.505Z,2.60
2023-03-17T01:44:18.565Z,2.00
2023-03-17T01:46:47.738Z,2.20
2023-03-17T01:49:29.513Z,1.90
2023-03-17T01:52:06.124Z,2.30
2023-03-17T01:54:41.233Z,2.00
2023-03-17T01:57:17.077Z,1.90
2023-03-17T01:59:51.365Z,1.90
2023-03-17T02:02:25.248Z,2.10
2023-03-17T02:04:54.379Z,2.10
2023-03-17T02:07:26.740Z,1.88
2023-03-17T02:09:56.180Z,1.92
2023-03-17T02:12:26.412Z,1.90
2023-03-17T02:14:54.990Z,1.77
2023-03-17T02:17:26.925Z,1.75
2023-03-17T02:19:56.262Z,1.98
2023-03-17T02:22:26.601Z,1.70
2023-03-17T02:24:57.990Z,1.80
2023-03-17T02:27:34.926Z,1.73
2023-03-17T02:30:03.580Z,2.10
2023-03-17T02:32:32.239Z,2.28
2023-03-17T02:35:03.168Z,1.70
2023-03-17T02:37:33.173Z,1.85
2023-03-17T02:40:02.828Z,1.83
2023-03-17T02:42:31.626Z,1.70
2023-03-17T02:45:01.337Z,1.60
2023-03-17T02:47:30.131Z,2.25
2023-03-17T02:49:58.709Z,1.88
2023-03-17T02:52:28.010Z,1.60
2023-03-17T02:54:58.033Z,2.33
2023-03-17T02:57:26.786Z,2.20
2023-03-17T02:59:55.631Z,1.80
2023-03-17T03:02:24.344Z,1.70
2023-03-17T03:04:53.203Z,2.25
2023-03-17T03:07:22.995Z,2.00
2023-03-17T03:09:51.588Z,1.80
2023-03-17T03:12:21.487Z,1.90
2023-03-17T03:14:50.278Z,1.63
2023-03-17T03:17:18.836Z,1.70
2023-03-17T03:19:47.416Z,1.80
2023-03-17T03:22:16.010Z,1.80
2023-03-17T03:24:44.594Z,1.95
2023-03-17T03:27:13.245Z,1.90
2023-03-17T03:29:43.204Z,1.52
2023-03-17T03:32:12.000Z,1.70
2023-03-17T03:34:40.633Z,1.60
2023-03-17T03:37:09.436Z,1.42
2023-03-17T03:39:39.254Z,1.40
2023-03-17T03:42:08.024Z,1.83
2023-03-17T03:44:36.588Z,1.60
2023-03-17T03:47:06.842Z,1.70
2023-03-17T03:49:35.630Z,1.50
2023-03-17T03:52:04.188Z,1.63
2023-03-17T03:54:33.119Z,1.73
2023-03-17T03:57:01.713Z,1.40
2023-03-17T03:59:31.064Z,1.63
2023-03-17T04:01:59.633Z,1.65
2023-03-17T04:04:29.575Z,1.65
2023-03-17T04:06:58.154Z,1.90
2023-03-17T04:09:26.839Z,1.45
2023-03-17T04:11:55.604Z,1.48
2023-03-17T04:14:24.164Z,1.58
2023-03-17T04:16:52.667Z,1.67
2023-03-17T04:19:21.691Z,2.15
2023-03-17T04:21:53.734Z,1.90
2023-03-17T04:24:23.309Z,2.15
2023-03-17T04:26:52.056Z,1.92
2023-03-17T04:29:20.861Z,1.55
2023-03-17T04:31:49.593Z,1.90
2023-03-17T04:34:19.616Z,2.03
2023-03-17T04:36:49.284Z,1.83
2023-03-17T04:39:19.566Z,2.00
2023-03-17T04:41:48.117Z,2.13
2023-03-17T04:44:16.722Z,2.03
2023-03-17T04:46:45.239Z,2.40
2023-03-17T04:49:13.889Z,2.40
2023-03-17T04:51:42.292Z,2.17
2023-03-17T04:54:10.822Z,2.30
2023-03-17T04:56:41.170Z,1.83
2023-03-17T04:59:09.710Z,1.90
2023-03-17T05:01:39.300Z,1.90
2023-03-17T05:04:09.041Z,2.45
2023-03-17T05:06:38.489Z,2.33
2023-03-17T05:09:07.148Z,2.35
2023-03-17T05:11:36.357Z,1.83
2023-03-17T05:14:06.548Z,1.70
2023-03-17T05:16:35.064Z,1.58
2023-03-17T05:19:03.943Z,1.50
2023-03-17T05:21:32.413Z,3.17
2023-03-17T05:24:00.918Z,2.13
2023-03-17T05:26:29.593Z,1.55
2023-03-17T05:28:58.150Z,1.90
2023-03-17T05:31:28.080Z,1.98
2023-03-17T05:33:56.718Z,2.33
2023-03-17T05:36:25.279Z,1.73
2023-03-17T05:38:53.985Z,1.88
2023-03-17T05:41:23.171Z,1.60
2023-03-17T05:43:51.999Z,1.60
2023-03-17T05:46:20.815Z,1.42
2023-03-17T05:48:50.825Z,1.55
2023-03-17T05:51:19.570Z,1.98
2023-03-17T05:53:48.061Z,1.95
2023-03-17T05:56:16.706Z,2.13
2023-03-17T05:58:45.239Z,1.98
2023-03-17T06:01:14.373Z,1.85
2023-03-17T06:03:43.119Z,2.10
2023-03-17T06:06:13.269Z,2.08
2023-03-17T06:08:41.934Z,2.45
2023-03-17T06:11:10.538Z,2.10
2023-03-17T06:13:39.219Z,1.95
2023-03-17T06:16:08.740Z,2.47
2023-03-17T06:18:37.498Z,2.28
2023-03-17T06:21:06.414Z,1.70
2023-03-17T06:23:36.752Z,1.63
2023-03-17T06:26:05.442Z,1.60
2023-03-17T06:28:34.294Z,1.45
2023-03-17T06:31:05.251Z,1.50
2023-03-17T06:33:35.488Z,1.85
2023-03-17T06:36:04.161Z,1.85
2023-03-17T06:38:32.789Z,1.48
2023-03-17T06:41:03.482Z,1.95
2023-03-17T06:43:32.840Z,1.67
2023-03-17T06:46:01.409Z,1.80
2023-03-17T06:48:30.079Z,1.77
2023-03-17T06:50:58.722Z,2.03
2023-03-17T06:53:27.586Z,2.45
2023-03-17T06:55:56.385Z,1.90
2023-03-17T06:58:27.541Z,1.92
2023-03-17T07:00:56.054Z,1.52
2023-03-17T07:03:25.646Z,2.05
2023-03-17T07:05:54.861Z,1.83
2023-03-17T07:08:23.415Z,1.92
2023-03-17T07:10:52.930Z,1.73
2023-03-17T07:13:22.487Z,1.95
2023-03-17T07:15:55.248Z,1.42
2023-03-17T07:18:24.049Z,1.77
2023-03-17T07:20:52.600Z,1.90
2023-03-17T07:23:23.813Z,1.40
2023-03-17T07:25:52.775Z,1.42
2023-03-17T07:28:21.894Z,1.50
2023-03-17T07:30:52.214Z,1.55
2023-03-17T07:33:22.037Z,1.60
2023-03-17T07:35:51.158Z,1.63
2023-03-17T07:38:21.163Z,1.60
2023-03-17T07:40:50.549Z,1.38
2023-03-17T07:43:19.468Z,1.60
2023-03-17T07:45:48.210Z,1.33
2023-03-17T07:48:18.201Z,1.33
2023-03-17T07:50:47.527Z,1.58
2023-03-17T07:53:16.230Z,1.52
2023-03-17T07:55:44.721Z,1.40
2023-03-17T07:58:15.791Z,1.30
2023-03-17T08:00:44.465Z,1.10
2023-03-17T08:03:13.138Z,1.48
2023-03-17T08:05:43.125Z,1.50
2023-03-17T08:08:12.857Z,1.40
2023-03-17T08:10:41.400Z,2.38
2023-03-17T08:13:10.092Z,1.30
2023-03-17T08:15:38.548Z,1.80
2023-03-17T08:18:07.226Z,1.25
2023-03-17T08:20:36.567Z,1.38
2023-03-17T08:23:06.728Z,1.50
2023-03-17T08:25:35.596Z,1.45
2023-03-17T08:28:04.912Z,1.23
2023-03-17T08:30:34.996Z,1.58
2023-03-17T08:33:04.258Z,1.63
2023-03-17T08:35:33.287Z,1.50
2023-03-17T08:38:02.514Z,1.98
2023-03-17T08:40:32.665Z,1.85
2023-03-17T08:43:01.466Z,1.42
2023-03-17T08:45:30.396Z,1.45
2023-03-17T08:47:59.558Z,1.52
2023-03-17T08:50:28.297Z,1.70
2023-03-17T08:52:57.045Z,1.60
2023-03-17T08:55:25.819Z,1.88
2023-03-17T08:57:56.264Z,1.30
2023-03-17T09:00:26.885Z,1.55
2023-03-17T09:02:55.696Z,1.52
2023-03-17T09:05:24.222Z,1.92
2023-03-17T09:07:53.658Z,1.60
2023-03-17T09:10:23.733Z,1.85
2023-03-17T09:12:53.469Z,1.90
2023-03-17T09:15:23.588Z,2.00
2023-03-17T09:17:52.194Z,2.08
2023-03-17T09:20:22.422Z,1.98
2023-03-17T09:22:51.349Z,1.80
2023-03-17T09:25:20.832Z,2.45
2023-03-17T09:27:49.399Z,2.30
2023-03-17T09:30:18.936Z,2.78
2023-03-17T09:32:49.343Z,3.00
2023-03-17T09:35:17.967Z,3.38
2023-03-17T09:37:46.460Z,2.80
2023-03-17T09:40:18.518Z,2.80
2023-03-17T09:42:58.222Z,2.78
2023-03-17T09:45:34.742Z,2.83
2023-03-17T09:48:43.388Z,2.67
2023-03-17T09:51:14.435Z,2.90
2023-03-17T09:53:50.603Z,2.70
2023-03-17T09:56:21.112Z,2.53
2023-03-17T09:58:55.346Z,2.28
2023-03-17T10:01:24.338Z,2.63
2023-03-17T10:03:54.609Z,2.42
2023-03-17T10:06:34.778Z,2.80
2023-03-17T10:09:16.791Z,2.75
2023-03-17T10:11:49.060Z,2.28
2023-03-17T10:14:43.287Z,2.40
2023-03-17T10:17:17.759Z,2.20
2023-03-17T10:19:53.066Z,1.98
2023-03-17T10:22:26.508Z,2.35
2023-03-17T10:25:03.863Z,2.25
2023-03-17T10:27:36.747Z,2.15
2023-03-17T10:30:06.318Z,2.38
2023-03-17T10:32:39.176Z,2.38
2023-03-17T10:35:10.879Z,2.15
2023-03-17T10:37:42.560Z,2.50
2023-03-17T10:40:22.410Z,2.83
2023-03-17T10:42:55.102Z,3.10
2023-03-17T10:45:28.864Z,3.20
2023-03-17T10:47:59.147Z,2.78
2023-03-17T10:50:32.279Z,3.25
2023-03-17T10:53:06.188Z,3.08
2023-03-17T10:55:40.918Z,2.35
2023-03-17T10:58:16.748Z,2.80
2023-03-17T11:00:55.633Z,3.25
2023-03-17T11:03:27.386Z,3.38
2023-03-17T11:05:59.406Z,3.05
2023-03-17T11:08:32.952Z,2.80
2023-03-17T11:11:02.106Z,2.35
2023-03-17T11:13:31.612Z,2.90
2023-03-17T11:16:10.729Z,2.90
2023-03-17T11:18:40.943Z,3.78
2023-03-17T11:21:13.284Z,3.80
2023-03-17T11:23:55.179Z,4.00
2023-03-17T11:26:41.793Z,3.22
2023-03-17T11:29:24.675Z,3.00
2023-03-17T11:32:01.039Z,3.10
2023-03-17T11:34:52.171Z,2.65
2023-03-17T11:37:40.026Z,2.95
2023-03-17T11:40:16.531Z,3.17
2023-03-17T11:43:01.212Z,3.30
2023-03-17T11:45:34.371Z,3.30
2023-03-17T11:48:21.537Z,3.67
2023-03-17T11:50:57.215Z,3.58
2023-03-17T11:53:39.490Z,4.05
2023-03-17T11:56:15.753Z,3.60
2023-03-17T11:58:46.272Z,3.80
2023-03-17T12:01:17.719Z,3.65
2023-03-17T12:03:51.267Z,3.65
2023-03-17T12:06:27.408Z,3.90
2023-03-17T12:09:01.599Z,4.10
2023-03-17T12:11:33.317Z,4.20
2023-03-17T12:14:06.082Z,4.38
2023-03-17T12:16:39.876Z,3.63
2023-03-17T12:19:14.989Z,3.63
2023-03-17T12:21:50.380Z,4.40
2023-03-17T12:26:55.765Z,4.13
2023-03-17T12:29:31.709Z,3.60
2023-03-17T12:32:06.753Z,3.78
2023-03-17T12:34:44.906Z,3.13
2023-03-17T12:37:14.412Z,3.47
2023-03-17T12:39:50.410Z,3.20
2023-03-17T12:42:29.229Z,3.30
2023-03-17T12:45:18.779Z,3.67
2023-03-17T12:47:56.807Z,3.58
2023-03-17T12:50:50.339Z,3.20
2023-03-17T12:53:31.155Z,3.30
2023-03-17T12:56:09.807Z,2.85
2023-03-17T12:58:39.869Z,3.55
2023-03-17T13:01:11.285Z,3.35
2023-03-17T13:03:47.620Z,3.75
2023-03-17T13:06:19.269Z,3.05
2023-03-17T13:08:48.864Z,2.92
2023-03-17T13:11:28.803Z,2.80
2023-03-17T13:13:59.713Z,2.78
2023-03-17T13:16:29.768Z,2.20
2023-03-17T13:19:18.778Z,2.15
2023-03-17T13:21:51.045Z,2.90
2023-03-17T13:24:23.881Z,2.90
2023-03-17T13:26:56.461Z,2.58
2023-03-17T13:29:26.738Z,2.70
2023-03-17T13:32:15.102Z,2.60
2023-03-17T13:34:47.302Z,3.13
2023-03-17T13:37:22.367Z,2.90
2023-03-17T13:39:57.782Z,3.10
2023-03-17T13:42:59.571Z,3.35
2023-03-17T13:45:37.334Z,3.03
2023-03-17T13:48:28.580Z,2.85
2023-03-17T13:50:59.495Z,3.10
2023-03-17T13:53:31.379Z,2.72
2023-03-17T13:56:17.583Z,2.92
2023-03-17T13:58:57.821Z,3.20
2023-03-17T14:01:29.627Z,2.90
2023-03-17T14:03:58.724Z,3.15
2023-03-17T14:06:31.869Z,3.22
2023-03-17T14:09:04.904Z,2.35
2023-03-17T14:11:37.097Z,2.75
2023-03-17T14:14:32.590Z,2.53
2023-03-17T14:19:35.112Z,2.60
2023-03-17T14:22:05.488Z,2.50
2023-03-17T14:24:35.157Z,2.17
2023-03-17T14:27:08.541Z,2.92
2023-03-17T14:29:38.597Z,2.70
2023-03-17T14:32:14.773Z,2.53
2023-03-17T14:34:45.146Z,2.80
2023-03-17T14:37:14.207Z,2.95
2023-03-17T14:39:46.923Z,3.10
2023-03-17T14:42:15.546Z,2.80
2023-03-17T14:44:45.266Z,2.83
2023-03-17T14:47:20.440Z,3.10
2023-03-17T14:49:49.970Z,2.53
2023-03-17T14:52:22.979Z,3.30
2023-03-17T14:54:54.079Z,2.65
2023-03-17T14:57:27.174Z,3.08
2023-03-17T15:00:00.845Z,2.67
2023-03-17T15:02:35.467Z,2.83
2023-03-17T15:05:25.867Z,3.20
2023-03-17T15:07:54.543Z,2.53
2023-03-17T15:10:26.026Z,2.60
2023-03-17T15:13:02.688Z,2.42
2023-03-17T15:15:33.860Z,2.67
2023-03-17T15:18:08.428Z,2.60
2023-03-17T15:20:37.133Z,3.00
2023-03-17T15:23:15.898Z,2.67
2023-03-17T15:25:45.805Z,3.10
2023-03-17T15:28:17.360Z,2.50
2023-03-17T15:30:48.399Z,2.42
2023-03-17T15:33:22.963Z,3.30
2023-03-17T15:35:52.053Z,3.45
2023-03-17T15:38:21.667Z,2.80
2023-03-17T15:40:50.389Z,3.17
2023-03-17T15:43:21.706Z,2.40
2023-03-17T15:45:56.103Z,2.47
2023-03-17T15:48:29.935Z,2.70
2023-03-17T15:51:01.493Z,2.38
2023-03-17T15:53:30.371Z,2.60
2023-03-17T15:55:59.317Z,2.47
2023-03-17T15:58:27.889Z,2.28
2023-03-17T16:01:00.125Z,3.10
2023-03-17T16:03:33.938Z,3.92
2023-03-17T16:06:04.300Z,4.30
2023-03-17T16:08:33.005Z,3.45
2023-03-17T16:11:01.772Z,3.47
2023-03-17T16:13:30.303Z,2.92
2023-03-17T16:16:01.383Z,3.00
2023-03-17T16:18:35.261Z,3.35
2023-03-17T16:21:04.591Z,3.10
2023-03-17T16:23:37.090Z,3.65
2023-03-17T16:26:14.950Z,3.42
2023-03-17T16:28:45.963Z,3.65
2023-03-17T16:31:20.804Z,3.20
2023-03-17T16:33:52.826Z,3.10
2023-03-17T16:36:22.797Z,2.50
2023-03-17T16:38:52.194Z,3.30
2023-03-17T16:41:22.957Z,4.05
2023-03-17T16:43:55.434Z,4.13
2023-03-17T16:46:24.408Z,4.32
2023-03-17T16:48:54.423Z,5.10
2023-03-17T16:51:24.986Z,4.50
2023-03-17T16:53:53.690Z,4.50
2023-03-17T16:56:24.043Z,4.50
2023-03-17T16:58:52.639Z,3.88
2023-03-17T17:01:23.545Z,4.57
2023-03-17T17:03:53.706Z,4.10
2023-03-17T17:06:23.520Z,4.65
2023-03-17T17:08:53.211Z,4.05
2023-03-17T17:11:22.300Z,3.60
2023-03-17T17:13:51.829Z,4.60
2023-03-17T17:16:26.724Z,3.63
2023-03-17T17:18:57.548Z,3.83
2023-03-17T17:21:26.373Z,3.60
2023-03-17T17:23:55.649Z,4.00
2023-03-17T17:26:24.440Z,3.63
2023-03-17T17:28:53.211Z,3.72
2023-03-17T17:31:21.871Z,4.20
2023-03-17T17:33:50.382Z,3.60
2023-03-17T17:36:20.446Z,3.75
2023-03-17T17:38:48.970Z,4.10
2023-03-17T17:41:21.388Z,3.90
2023-03-17T17:43:51.263Z,3.78
2023-03-17T17:46:22.309Z,3.65
2023-03-17T17:48:51.396Z,3.90
2023-03-17T17:51:21.629Z,3.65
2023-03-17T17:53:50.151Z,4.50
2023-03-17T17:56:19.908Z,4.00
2023-03-17T17:58:48.680Z,3.65
2023-03-17T18:01:20.242Z,3.92
2023-03-17T18:03:48.927Z,3.72
2023-03-17T18:06:18.145Z,3.78
2023-03-17T18:08:48.397Z,4.35
2023-03-17T18:11:16.857Z,4.45
2023-03-17T18:13:45.449Z,4.70
2023-03-17T18:16:17.298Z,4.50
2023-03-17T18:18:47.344Z,4.60
2023-03-17T18:21:16.347Z,5.15
2023-03-17T18:23:47.458Z,6.30
2023-03-17T18:26:20.309Z,5.65
2023-03-17T18:28:49.245Z,6.35
2023-03-17T18:31:23.381Z,5.68
2023-03-17T18:33:56.284Z,5.05
2023-03-17T18:36:25.065Z,5.18
2023-03-17T18:38:53.642Z,5.18
2023-03-17T18:41:24.406Z,5.63
2023-03-17T18:43:52.988Z,5.25
2023-03-17T18:46:21.577Z,4.90
2023-03-17T18:48:51.184Z,5.38
2023-03-17T18:51:19.725Z,5.68
2023-03-17T18:53:48.760Z,5.32
2023-03-17T18:56:17.544Z,5.40
2023-03-17T18:58:47.464Z,5.25
2023-03-17T19:01:16.019Z,5.85
2023-03-17T19:03:44.605Z,6.03
2023-03-17T19:06:16.476Z,6.20
2023-03-17T19:08:45.580Z,5.78
2023-03-17T19:11:16.496Z,6.20
2023-03-17T19:13:46.555Z,6.35
2023-03-17T19:16:16.681Z,6.53
2023-03-17T19:18:45.704Z,7.90
2023-03-17T19:21:14.436Z,6.13
2023-03-17T19:23:43.040Z,6.93
2023-03-17T19:26:11.826Z,6.13
2023-03-17T19:28:40.424Z,7.35
2023-03-17T19:31:10.538Z,6.43
2023-03-17T19:33:39.105Z,7.10
2023-03-17T19:36:09.835Z,6.35
2023-03-17T19:38:38.995Z,6.53
2023-03-17T19:41:08.360Z,6.85
2023-03-17T19:43:41.055Z,6.32
2023-03-17T19:46:12.691Z,6.57
2023-03-17T19:48:42.094Z,6.47
2023-03-17T19:51:11.558Z,6.20
2023-03-17T19:53:40.127Z,5.97
2023-03-17T19:56:08.958Z,6.15
2023-03-17T19:58:37.664Z,6.07
2023-03-17T20:01:06.969Z,5.90
2023-03-17T20:03:42.372Z,6.25
2023-03-17T20:06:11.425Z,6.78
2023-03-17T20:08:40.560Z,5.90
2023-03-17T20:11:09.332Z,6.13
2023-03-17T20:13:38.246Z,5.93
2023-03-17T20:16:08.153Z,5.72
2023-03-17T20:18:38.142Z,5.68
2023-03-17T20:21:07.871Z,5.32
2023-03-17T20:23:37.947Z,5.25
2023-03-17T20:26:07.061Z,5.88
2023-03-17T20:28:35.842Z,4.78
2023-03-17T20:31:04.973Z,5.32
2023-03-17T20:33:33.911Z,5.60
2023-03-17T20:36:04.919Z,5.53
2023-03-17T20:38:37.114Z,5.25
2023-03-17T20:41:07.567Z,5.85
2023-03-17T20:43:37.693Z,5.72
2023-03-17T20:46:08.919Z,7.13
2023-03-17T20:48:38.847Z,6.90
2023-03-17T20:51:10.223Z,5.53
2023-03-17T20:53:39.020Z,5.55
2023-03-17T20:56:08.618Z,5.97
2023-03-17T20:58:37.209Z,5.60
2023-03-17T21:01:06.008Z,6.15
2023-03-17T21:03:34.627Z,6.10
2023-03-17T21:06:03.106Z,5.40
2023-03-17T21:08:33.946Z,5.22
2023-03-17T21:11:02.925Z,6.75
2023-03-17T21:13:33.206Z,5.22
2023-03-17T21:16:02.355Z,5.75
2023-03-17T21:18:31.918Z,5.18
2023-03-17T21:21:00.588Z,4.80
2023-03-17T21:23:29.157Z,7.88
2023-03-17T21:25:59.079Z,5.95
2023-03-17T21:28:27.701Z,6.47
2023-03-17T21:30:56.301Z,4.30
2023-03-17T21:33:25.138Z,12.25
2023-03-17T21:35:53.711Z,7.85
2023-03-17T21:38:23.038Z,9.20
2023-03-17T21:40:51.767Z,5.93
2023-03-17T21:43:21.856Z,8.38
2023-03-17T21:45:50.823Z,7.50
2023-03-17T21:48:20.738Z,6.38
2023-03-17T21:50:50.195Z,5.57
2023-03-17T21:53:19.102Z,5.35
2023-03-17T21:55:47.903Z,6.63
2023-03-17T21:58:16.710Z,6.15
2023-03-17T22:00:47.440Z,5.00
2023-03-17T22:03:16.247Z,4.13
2023-03-17T22:05:47.240Z,3.95
2023-03-17T22:08:15.846Z,3.60
2023-03-17T22:10:44.425Z,3.42
2023-03-17T22:13:13.905Z,4.90
2023-03-17T22:15:42.939Z,3.95
2023-03-17T22:18:13.003Z,6.05
2023-03-17T22:20:41.697Z,5.15
2023-03-17T22:23:10.245Z,4.38
2023-03-17T22:25:39.076Z,4.28
2023-03-17T22:28:07.583Z,3.65
2023-03-17T22:30:38.564Z,4.13
2023-03-17T22:33:07.743Z,3.50
2023-03-17T22:35:38.150Z,3.65
2023-03-17T22:38:07.595Z,2.83
2023-03-17T22:40:36.841Z,3.75
2023-03-17T22:43:05.450Z,2.88
2023-03-17T22:45:34.132Z,3.15
2023-03-17T22:48:02.735Z,3.38
2023-03-17T22:50:31.436Z,3.60
2023-03-17T22:53:01.405Z,4.72
2023-03-17T22:55:29.851Z,4.72
2023-03-17T22:57:58.336Z,4.18
2023-03-17T23:00:27.072Z,3.83
2023-03-17T23:02:55.609Z,3.00
2023-03-17T23:05:24.587Z,4.70
2023-03-17T23:07:53.108Z,3.63
2023-03-17T23:10:24.792Z,3.65
2023-03-17T23:12:54.014Z,3.60
2023-03-17T23:15:23.168Z,2.50
2023-03-17T23:17:52.114Z,2.97
2023-03-17T23:20:20.791Z,2.63
2023-03-17T23:22:49.764Z,3.55
2023-03-17T23:25:18.752Z,2.83
2023-03-17T23:27:49.234Z,2.45
2023-03-17T23:30:18.919Z,2.88
2023-03-17T23:32:49.323Z,2.67
2023-03-17T23:35:19.623Z,2.92
2023-03-17T23:37:48.363Z,2.65
2023-03-17T23:40:17.471Z,2.70
2023-03-17T23:42:48.155Z,2.80
2023-03-17T23:45:18.910Z,2.70
2023-03-17T23:47:48.610Z,2.70
2023-03-17T23:50:17.839Z,2.92
2023-03-17T23:52:47.296Z,3.20
2023-03-17T23:55:17.337Z,3.58
2023-03-17T23:57:46.542Z,2.97
